createdAt,value
2023-07-25T00:01:16.571Z,82.59
2023-07-25T00:03:44.417Z,82.54
2023-07-25T00:06:12.147Z,82.65
2023-07-25T00:08:40.046Z,82.81
2023-07-25T00:11:14.772Z,82.80
2023-07-25T00:13:42.585Z,83.01
2023-07-25T00:16:10.362Z,82.96
2023-07-25T00:18:38.184Z,83.03
2023-07-25T00:21:05.864Z,83.19
2023-07-25T00:23:33.617Z,83.04
2023-07-25T00:26:01.377Z,83.13
2023-07-25T00:28:29.132Z,83.10
2023-07-25T00:30:56.852Z,83.04
2023-07-25T00:33:24.646Z,82.84
2023-07-25T00:35:53.786Z,82.89
2023-07-25T00:38:21.536Z,82.98
2023-07-25T00:40:49.256Z,82.70
2023-07-25T00:43:17.369Z,82.64
2023-07-25T00:45:45.248Z,82.86
2023-07-25T00:48:14.111Z,83.16
2023-07-25T00:50:41.913Z,83.17
2023-07-25T00:53:10.902Z,83.29
2023-07-25T00:55:39.585Z,83.07
2023-07-25T00:58:07.413Z,83.03
2023-07-25T01:00:39.410Z,82.93
2023-07-25T01:03:07.958Z,82.91
2023-07-25T01:05:46.351Z,83.07
2023-07-25T01:08:14.142Z,83.08
2023-07-25T01:10:41.883Z,82.97
2023-07-25T01:13:09.613Z,82.92
2023-07-25T01:15:37.517Z,82.43
2023-07-25T01:18:07.417Z,82.32
2023-07-25T01:20:36.886Z,82.35
2023-07-25T01:23:07.277Z,82.08
2023-07-25T01:25:36.521Z,82.21
2023-07-25T01:28:04.545Z,82.50
2023-07-25T01:30:32.510Z,82.64
2023-07-25T01:33:00.467Z,82.48
2023-07-25T01:35:28.522Z,82.27
2023-07-25T01:37:56.308Z,82.13
2023-07-25T01:40:24.158Z,82.29
2023-07-25T01:42:52.219Z,82.32
2023-07-25T01:45:20.134Z,82.26
2023-07-25T01:47:47.940Z,82.28
2023-07-25T01:50:16.722Z,82.35
2023-07-25T01:52:44.677Z,82.28
2023-07-25T01:55:12.557Z,82.32
2023-07-25T01:57:40.256Z,82.30
2023-07-25T02:00:08.861Z,82.33
2023-07-25T02:02:40.903Z,82.39
2023-07-25T02:05:08.994Z,82.28
2023-07-25T02:07:38.424Z,82.34
2023-07-25T02:10:06.879Z,82.46
2023-07-25T02:12:34.636Z,82.69
2023-07-25T02:15:02.462Z,82.79
2023-07-25T02:17:30.205Z,82.83
2023-07-25T02:19:57.920Z,82.76
2023-07-25T02:22:25.608Z,82.68
2023-07-25T02:24:53.611Z,82.84
2023-07-25T02:27:21.394Z,82.88
2023-07-25T02:29:49.314Z,83.25
2023-07-25T02:32:17.009Z,83.42
2023-07-25T02:34:44.691Z,83.32
2023-07-25T02:37:12.456Z,83.25
2023-07-25T02:39:44.030Z,83.25
2023-07-25T02:42:11.791Z,83.48
2023-07-25T02:44:39.569Z,83.54
2023-07-25T02:47:07.945Z,83.66
2023-07-25T02:49:36.976Z,83.82
2023-07-25T02:52:05.341Z,83.87
2023-07-25T02:54:33.055Z,83.66
2023-07-25T02:57:00.781Z,83.51
2023-07-25T02:59:30.820Z,83.52
2023-07-25T03:01:58.883Z,83.54
2023-07-25T03:04:26.720Z,83.87
2023-07-25T03:06:54.483Z,83.76
2023-07-25T03:09:22.264Z,83.74
2023-07-25T03:11:50.122Z,83.69
2023-07-25T03:14:18.102Z,83.66
2023-07-25T03:16:45.894Z,83.60
2023-07-25T03:19:13.726Z,83.53
2023-07-25T03:21:41.522Z,83.61
2023-07-25T03:24:09.211Z,83.67
2023-07-25T03:26:37.561Z,83.54
2023-07-25T03:29:05.598Z,83.56
2023-07-25T03:31:34.038Z,83.61
2023-07-25T03:34:02.233Z,83.90
2023-07-25T03:36:30.253Z,84.11
2023-07-25T03:38:58.036Z,84.34
2023-07-25T03:41:25.993Z,84.27
2023-07-25T03:43:53.720Z,84.19
2023-07-25T03:46:21.488Z,84.14
2023-07-25T03:48:49.320Z,84.16
2023-07-25T03:51:17.111Z,84.13
2023-07-25T03:53:44.834Z,84.06
2023-07-25T03:56:12.586Z,83.74
2023-07-25T03:58:40.336Z,83.68
2023-07-25T04:01:08.073Z,83.77
2023-07-25T04:03:35.900Z,83.87
2023-07-25T04:06:03.936Z,83.76
2023-07-25T04:08:31.856Z,83.74
2023-07-25T04:10:59.560Z,83.84
2023-07-25T04:13:27.337Z,83.98
2023-07-25T04:15:55.133Z,84.10
2023-07-25T04:18:23.141Z,84.31
2023-07-25T04:20:50.903Z,84.43
2023-07-25T04:23:23.009Z,84.39
2023-07-25T04:25:50.806Z,84.29
2023-07-25T04:28:19.219Z,84.25
2023-07-25T04:30:46.952Z,84.29
2023-07-25T04:33:14.675Z,84.31
2023-07-25T04:35:46.261Z,84.41
2023-07-25T04:38:15.564Z,84.51
2023-07-25T04:40:44.978Z,84.49
2023-07-25T04:43:12.927Z,84.53
2023-07-25T04:45:40.935Z,84.60
2023-07-25T04:48:08.893Z,84.53
2023-07-25T04:50:36.887Z,84.38
2023-07-25T04:53:05.881Z,84.42
2023-07-25T04:55:33.592Z,84.41
2023-07-25T04:58:01.314Z,84.32
2023-07-25T05:00:30.824Z,84.20
2023-07-25T05:02:58.898Z,84.23
2023-07-25T05:05:26.881Z,84.29
2023-07-25T05:07:54.591Z,84.27
2023-07-25T05:10:22.423Z,84.39
2023-07-25T05:12:50.214Z,84.42
2023-07-25T05:15:18.165Z,84.48
2023-07-25T05:17:45.910Z,84.53
2023-07-25T05:20:14.370Z,84.64
2023-07-25T05:22:42.084Z,84.55
2023-07-25T05:25:10.126Z,84.57
2023-07-25T05:27:37.877Z,84.58
2023-07-25T05:30:07.107Z,84.45
2023-07-25T05:32:38.017Z,84.41
2023-07-25T05:35:06.708Z,84.39
2023-07-25T05:37:37.378Z,84.39
2023-07-25T05:40:06.998Z,84.36
2023-07-25T05:42:34.996Z,84.41
2023-07-25T05:45:02.929Z,84.31
2023-07-25T05:47:30.927Z,84.40
2023-07-25T05:49:58.828Z,84.53
2023-07-25T05:52:26.675Z,84.62
2023-07-25T05:54:54.801Z,84.42
2023-07-25T05:57:22.646Z,84.19
2023-07-25T05:59:50.379Z,84.04
2023-07-25T06:02:18.142Z,83.93
2023-07-25T06:04:47.396Z,83.81
2023-07-25T06:07:16.707Z,83.80
2023-07-25T06:09:44.501Z,83.90
2023-07-25T06:12:12.475Z,83.82
2023-07-25T06:14:40.349Z,83.58
2023-07-25T06:17:08.201Z,83.46
2023-07-25T06:19:36.034Z,83.25
2023-07-25T06:22:03.876Z,83.08
2023-07-25T06:24:41.488Z,82.86
2023-07-25T06:27:11.499Z,83.02
2023-07-25T06:29:39.303Z,83.08
2023-07-25T06:32:07.701Z,83.20
2023-07-25T06:34:35.833Z,82.99
2023-07-25T06:37:03.778Z,82.58
2023-07-25T06:39:31.634Z,82.50
2023-07-25T06:41:59.343Z,82.44
2023-07-25T06:44:29.045Z,82.10
2023-07-25T06:46:56.836Z,81.78
2023-07-25T06:49:24.599Z,81.61
2023-07-25T06:51:52.340Z,81.61
2023-07-25T06:54:20.072Z,81.51
2023-07-25T06:56:47.876Z,81.57
2023-07-25T06:59:15.666Z,81.57
2023-07-25T07:01:43.456Z,81.37
2023-07-25T07:04:11.417Z,81.13
2023-07-25T07:06:39.381Z,80.77
2023-07-25T07:09:07.089Z,80.59
2023-07-25T07:11:34.912Z,80.57
2023-07-25T07:14:02.706Z,80.65
2023-07-25T07:16:30.486Z,79.83
2023-07-25T07:18:58.303Z,80.04
2023-07-25T07:21:26.173Z,79.85
2023-07-25T07:23:54.153Z,78.53
2023-07-25T07:26:21.959Z,77.94
2023-07-25T07:28:50.727Z,77.13
2023-07-25T07:31:24.437Z,77.50
2023-07-25T07:33:53.429Z,76.07
2023-07-25T07:36:21.186Z,77.00
2023-07-25T07:38:48.916Z,76.78
2023-07-25T07:41:16.661Z,76.08
2023-07-25T07:43:44.392Z,75.14
2023-07-25T07:46:12.127Z,75.78
2023-07-25T07:48:42.024Z,75.19
2023-07-25T07:51:10.040Z,74.83
2023-07-25T07:53:39.622Z,75.54
2023-07-25T07:56:08.645Z,74.02
2023-07-25T07:58:36.483Z,73.94
2023-07-25T08:01:04.869Z,74.47
2023-07-25T08:03:32.818Z,74.89
2023-07-25T08:06:00.608Z,74.60
2023-07-25T08:08:28.444Z,74.07
2023-07-25T08:10:56.180Z,72.50
2023-07-25T08:13:24.033Z,71.43
2023-07-25T08:15:51.779Z,71.17
2023-07-25T08:18:19.984Z,70.16
2023-07-25T08:20:47.939Z,70.74
2023-07-25T08:23:15.707Z,70.57
2023-07-25T08:25:44.966Z,70.97
2023-07-25T08:28:12.796Z,71.59
2023-07-25T08:30:40.526Z,70.67
2023-07-25T08:33:08.456Z,70.93
2023-07-25T08:35:36.965Z,70.05
2023-07-25T08:38:04.741Z,68.41
2023-07-25T08:40:32.643Z,68.96
2023-07-25T08:43:10.202Z,68.99
2023-07-25T08:45:38.178Z,69.38
2023-07-25T08:48:13.528Z,67.99
2023-07-25T08:50:46.985Z,65.58
2023-07-25T08:53:16.566Z,66.49
2023-07-25T08:55:45.426Z,66.47
2023-07-25T08:58:15.584Z,66.37
2023-07-25T09:00:44.341Z,65.84
2023-07-25T09:03:12.884Z,64.72
2023-07-25T09:05:41.086Z,64.11
2023-07-25T09:08:08.823Z,64.38
2023-07-25T09:10:37.130Z,64.31
2023-07-25T09:13:04.836Z,63.94
2023-07-25T09:15:32.709Z,62.65
2023-07-25T09:18:00.470Z,63.17
2023-07-25T09:20:28.359Z,63.46
2023-07-25T09:22:58.759Z,63.19
2023-07-25T09:25:27.258Z,61.39
2023-07-25T09:27:55.839Z,60.03
2023-07-25T09:30:29.146Z,59.95
2023-07-25T09:32:57.067Z,60.54
2023-07-25T09:35:26.416Z,61.03
2023-07-25T09:37:56.174Z,59.37
2023-07-25T09:40:24.144Z,60.43
2023-07-25T09:42:52.626Z,60.39
2023-07-25T09:45:20.954Z,59.44
2023-07-25T09:47:52.978Z,57.03
2023-07-25T09:50:27.395Z,56.36
2023-07-25T09:52:55.210Z,57.05
2023-07-25T09:55:23.121Z,57.67
2023-07-25T09:57:52.867Z,57.37
2023-07-25T10:00:20.807Z,56.56
2023-07-25T10:02:50.038Z,57.21
2023-07-25T10:05:18.408Z,57.77
2023-07-25T10:07:48.807Z,57.24
2023-07-25T10:10:20.351Z,56.35
2023-07-25T10:12:48.162Z,55.29
2023-07-25T10:15:15.966Z,53.06
2023-07-25T10:17:45.483Z,54.41
2023-07-25T10:20:32.136Z,54.69
2023-07-25T10:23:12.505Z,53.30
2023-07-25T10:25:40.611Z,53.24
2023-07-25T10:28:09.084Z,54.31
2023-07-25T10:30:46.460Z,53.09
2023-07-25T10:33:15.938Z,51.97
2023-07-25T10:35:50.927Z,52.50
2023-07-25T10:38:34.263Z,53.64
2023-07-25T10:41:17.664Z,52.37
2023-07-25T10:43:56.371Z,53.86
2023-07-25T10:46:29.698Z,53.86
2023-07-25T10:49:01.234Z,53.46
2023-07-25T10:51:50.159Z,53.76
2023-07-25T10:54:20.920Z,53.73
2023-07-25T10:57:10.460Z,53.66
2023-07-25T10:59:59.643Z,53.04
2023-07-25T11:02:35.926Z,52.66
2023-07-25T11:05:13.316Z,53.34
2023-07-25T11:07:46.973Z,54.10
2023-07-25T11:10:27.542Z,53.40
2023-07-25T11:13:01.651Z,53.45
2023-07-25T11:15:40.726Z,53.13
2023-07-25T11:18:15.720Z,53.07
2023-07-25T11:20:44.318Z,51.96
2023-07-25T11:23:12.414Z,52.33
2023-07-25T11:25:40.190Z,51.62
2023-07-25T11:28:08.825Z,50.99
2023-07-25T11:30:45.100Z,48.86
2023-07-25T11:33:13.035Z,50.38
2023-07-25T11:35:40.926Z,53.07
2023-07-25T11:38:09.051Z,54.13
2023-07-25T11:40:41.400Z,53.59
2023-07-25T11:43:14.071Z,53.79
2023-07-25T11:45:45.175Z,53.93
2023-07-25T11:48:15.954Z,54.93
2023-07-25T11:50:44.854Z,53.32
2023-07-25T11:53:12.740Z,51.69
2023-07-25T11:55:40.567Z,51.91
2023-07-25T11:58:08.313Z,52.64
2023-07-25T12:00:41.034Z,52.63
2023-07-25T12:03:22.801Z,53.84
2023-07-25T12:05:59.651Z,53.74
2023-07-25T12:08:46.269Z,54.28
2023-07-25T12:11:16.617Z,51.94
2023-07-25T12:13:53.455Z,50.97
2023-07-25T12:16:38.206Z,50.43
2023-07-25T12:19:11.083Z,50.33
2023-07-25T12:21:42.482Z,49.47
2023-07-25T12:24:13.783Z,49.11
2023-07-25T12:26:48.233Z,49.48
2023-07-25T12:29:22.658Z,49.63
2023-07-25T12:31:50.467Z,50.43
2023-07-25T12:34:21.388Z,50.42
2023-07-25T12:36:50.881Z,50.69
2023-07-25T12:39:19.143Z,49.60
2023-07-25T12:41:47.571Z,49.90
2023-07-25T12:44:15.394Z,51.25
2023-07-25T12:46:43.305Z,51.53
2023-07-25T12:49:11.191Z,52.14
2023-07-25T12:51:38.958Z,51.14
2023-07-25T12:54:06.777Z,50.99
2023-07-25T12:56:34.827Z,48.26
2023-07-25T12:59:02.852Z,48.06
2023-07-25T13:01:30.930Z,48.27
2023-07-25T13:03:59.182Z,48.65
2023-07-25T13:06:26.966Z,49.00
2023-07-25T13:08:54.822Z,49.33
2023-07-25T13:11:22.553Z,48.66
2023-07-25T13:13:50.417Z,47.98
2023-07-25T13:16:18.301Z,45.93
2023-07-25T13:18:46.153Z,46.50
2023-07-25T13:21:13.871Z,46.11
2023-07-25T13:23:41.909Z,46.91
2023-07-25T13:26:09.922Z,47.05
2023-07-25T13:28:37.951Z,46.26
2023-07-25T13:31:05.807Z,46.15
2023-07-25T13:33:33.717Z,47.29
2023-07-25T13:36:01.603Z,47.06
2023-07-25T13:38:29.331Z,48.10
2023-07-25T13:40:57.157Z,49.50
2023-07-25T13:43:24.992Z,49.38
2023-07-25T13:45:53.541Z,49.03
2023-07-25T13:48:24.368Z,49.02
2023-07-25T13:50:54.919Z,48.42
2023-07-25T13:53:23.316Z,49.19
2023-07-25T13:55:52.568Z,48.95
2023-07-25T13:58:23.990Z,48.71
2023-07-25T14:00:52.611Z,48.12
2023-07-25T14:03:20.471Z,48.28
2023-07-25T14:05:48.330Z,47.43
2023-07-25T14:08:16.020Z,47.49
2023-07-25T14:10:43.855Z,46.69
2023-07-25T14:13:11.768Z,46.57
2023-07-25T14:15:39.662Z,47.26
2023-07-25T14:18:07.629Z,47.40
2023-07-25T14:20:36.285Z,46.21
2023-07-25T14:23:04.013Z,46.46
2023-07-25T14:25:32.054Z,46.91
2023-07-25T14:27:59.811Z,46.49
2023-07-25T14:30:27.943Z,46.34
2023-07-25T14:32:55.749Z,46.76
2023-07-25T14:35:23.595Z,45.72
2023-07-25T14:37:56.824Z,46.73
2023-07-25T14:40:26.391Z,47.15
2023-07-25T14:42:54.232Z,46.19
2023-07-25T14:45:22.160Z,46.77
2023-07-25T14:47:50.202Z,46.82
2023-07-25T14:50:18.200Z,46.71
2023-07-25T14:52:45.916Z,48.49
2023-07-25T14:55:14.078Z,48.43
2023-07-25T14:57:42.015Z,48.96
2023-07-25T15:00:11.033Z,49.34
2023-07-25T15:02:38.931Z,49.45
2023-07-25T15:05:07.858Z,49.07
2023-07-25T15:07:36.231Z,49.28
2023-07-25T15:10:04.981Z,48.95
2023-07-25T15:12:33.202Z,47.38
2023-07-25T15:15:01.341Z,46.95
2023-07-25T15:17:29.460Z,46.00
2023-07-25T15:20:01.959Z,46.40
2023-07-25T15:22:30.734Z,45.80
2023-07-25T15:24:58.834Z,46.64
2023-07-25T15:27:28.862Z,47.05
2023-07-25T15:29:57.145Z,45.95
2023-07-25T15:32:25.083Z,45.59
2023-07-25T15:34:52.974Z,46.69
2023-07-25T15:37:20.883Z,46.64
2023-07-25T15:39:48.685Z,47.66
2023-07-25T15:42:16.402Z,47.65
2023-07-25T15:44:44.169Z,48.14
2023-07-25T15:47:11.971Z,48.20
2023-07-25T15:49:39.774Z,47.85
2023-07-25T15:52:08.267Z,48.10
2023-07-25T15:54:36.150Z,48.60
2023-07-25T15:57:04.359Z,47.02
2023-07-25T15:59:32.107Z,46.89
2023-07-25T16:02:00.053Z,47.33
2023-07-25T16:04:27.854Z,45.99
2023-07-25T16:06:55.641Z,46.12
2023-07-25T16:09:23.385Z,46.57
2023-07-25T16:11:51.135Z,47.85
2023-07-25T16:14:18.998Z,46.18
2023-07-25T16:16:46.995Z,46.12
2023-07-25T16:19:16.992Z,45.31
2023-07-25T16:21:44.819Z,46.13
2023-07-25T16:24:12.597Z,44.61
2023-07-25T16:26:40.457Z,43.72
2023-07-25T16:29:08.294Z,42.71
2023-07-25T16:31:36.202Z,43.82
2023-07-25T16:34:04.881Z,43.53
2023-07-25T16:36:32.709Z,44.47
2023-07-25T16:39:00.705Z,44.60
2023-07-25T16:41:28.572Z,45.33
2023-07-25T16:43:56.340Z,45.31
2023-07-25T16:46:24.172Z,45.16
2023-07-25T16:48:51.991Z,44.50
2023-07-25T16:51:19.748Z,44.48
2023-07-25T16:53:47.659Z,45.64
2023-07-25T16:56:15.454Z,45.01
2023-07-25T16:58:43.317Z,45.20
2023-07-25T17:01:11.111Z,45.64
2023-07-25T17:03:39.389Z,46.40
2023-07-25T17:06:07.453Z,46.47
2023-07-25T17:08:35.236Z,47.17
2023-07-25T17:11:05.876Z,47.58
2023-07-25T17:13:36.752Z,48.38
2023-07-25T17:16:07.261Z,48.77
2023-07-25T17:18:35.337Z,49.27
2023-07-25T17:21:03.211Z,49.77
2023-07-25T17:23:30.982Z,49.44
2023-07-25T17:25:58.818Z,48.64
2023-07-25T17:28:27.224Z,49.08
2023-07-25T17:30:55.041Z,49.84
2023-07-25T17:33:23.239Z,49.16
2023-07-25T17:35:51.407Z,49.06
2023-07-25T17:38:19.232Z,48.19
2023-07-25T17:40:48.596Z,48.68
2023-07-25T17:43:16.637Z,48.90
2023-07-25T17:45:44.713Z,49.26
2023-07-25T17:48:14.669Z,50.32
2023-07-25T17:50:42.609Z,50.52
2023-07-25T17:53:10.548Z,51.18
2023-07-25T17:55:40.734Z,51.17
2023-07-25T17:58:11.761Z,51.08
2023-07-25T18:00:40.601Z,51.33
2023-07-25T18:03:08.713Z,51.33
2023-07-25T18:05:37.080Z,51.36
2023-07-25T18:08:05.462Z,50.56
2023-07-25T18:10:33.354Z,51.18
2023-07-25T18:13:01.225Z,51.34
2023-07-25T18:15:30.624Z,51.69
2023-07-25T18:17:58.920Z,52.18
2023-07-25T18:20:26.904Z,51.75
2023-07-25T18:22:54.777Z,52.00
2023-07-25T18:25:22.985Z,52.27
2023-07-25T18:27:50.819Z,52.67
2023-07-25T18:30:18.539Z,52.77
2023-07-25T18:32:46.971Z,53.14
2023-07-25T18:35:15.554Z,52.87
2023-07-25T18:37:46.462Z,53.50
2023-07-25T18:40:14.265Z,53.22
2023-07-25T18:42:42.089Z,53.40
2023-07-25T18:45:10.653Z,53.41
2023-07-25T18:47:38.955Z,53.13
2023-07-25T18:50:07.787Z,53.83
2023-07-25T18:52:35.526Z,53.21
2023-07-25T18:55:03.614Z,53.61
2023-07-25T18:57:31.405Z,53.32
2023-07-25T18:59:59.432Z,53.07
2023-07-25T19:02:27.288Z,53.57
2023-07-25T19:04:55.074Z,53.67
2023-07-25T19:07:22.988Z,54.21
2023-07-25T19:09:50.678Z,54.27
2023-07-25T19:12:21.546Z,54.49
2023-07-25T19:14:49.290Z,54.60
2023-07-25T19:17:17.598Z,54.83
2023-07-25T19:19:45.413Z,55.03
2023-07-25T19:22:13.130Z,55.37
2023-07-25T19:24:40.884Z,56.00
2023-07-25T19:27:08.811Z,55.95
2023-07-25T19:29:36.525Z,56.41
2023-07-25T19:32:04.735Z,56.21
2023-07-25T19:34:36.326Z,56.65
2023-07-25T19:37:04.480Z,56.73
2023-07-25T19:39:34.217Z,56.85
2023-07-25T19:42:02.593Z,57.20
2023-07-25T19:44:30.343Z,57.48
2023-07-25T19:46:58.248Z,57.84
2023-07-25T19:49:25.966Z,57.53
2023-07-25T19:51:53.673Z,57.50
2023-07-25T19:54:21.707Z,57.53
2023-07-25T19:56:49.505Z,57.96
2023-07-25T19:59:17.357Z,58.10
2023-07-25T20:01:45.313Z,57.92
2023-07-25T20:04:13.068Z,58.80
2023-07-25T20:06:40.891Z,58.82
2023-07-25T20:09:08.625Z,58.68
2023-07-25T20:11:36.373Z,58.87
2023-07-25T20:14:04.411Z,59.06
2023-07-25T20:16:32.530Z,59.27
2023-07-25T20:19:00.710Z,59.33
2023-07-25T20:21:28.578Z,59.72
2023-07-25T20:23:56.428Z,59.99
2023-07-25T20:26:24.272Z,60.26
2023-07-25T20:28:54.482Z,60.53
2023-07-25T20:31:22.216Z,60.66
2023-07-25T20:33:50.323Z,60.82
2023-07-25T20:36:18.139Z,61.12
2023-07-25T20:38:47.694Z,61.64
2023-07-25T20:41:15.831Z,62.00
2023-07-25T20:43:43.747Z,62.57
2023-07-25T20:46:11.714Z,62.85
2023-07-25T20:48:39.828Z,63.23
2023-07-25T20:51:07.626Z,64.04
2023-07-25T20:53:36.597Z,64.40
2023-07-25T20:56:07.673Z,64.73
2023-07-25T20:58:35.700Z,65.02
2023-07-25T21:01:03.767Z,65.35
2023-07-25T21:03:31.943Z,65.76
2023-07-25T21:06:04.262Z,66.16
2023-07-25T21:08:32.043Z,66.51
2023-07-25T21:11:00.287Z,66.78
2023-07-25T21:13:28.216Z,66.94
2023-07-25T21:15:56.144Z,66.97
2023-07-25T21:18:23.994Z,67.14
2023-07-25T21:20:51.974Z,67.13
2023-07-25T21:23:23.474Z,67.49
2023-07-25T21:25:52.295Z,67.90
2023-07-25T21:28:20.503Z,68.01
2023-07-25T21:30:48.627Z,68.22
2023-07-25T21:33:16.434Z,68.42
2023-07-25T21:35:44.233Z,68.71
2023-07-25T21:38:13.057Z,69.04
2023-07-25T21:40:40.871Z,69.18
2023-07-25T21:43:08.539Z,69.25
2023-07-25T21:45:36.411Z,69.67
2023-07-25T21:48:04.714Z,69.98
2023-07-25T21:50:32.513Z,70.34
2023-07-25T21:53:00.300Z,70.52
2023-07-25T21:55:28.071Z,70.60
2023-07-25T21:57:55.933Z,70.78
2023-07-25T22:00:23.696Z,70.72
2023-07-25T22:02:51.786Z,71.00
2023-07-25T22:05:19.801Z,70.96
2023-07-25T22:07:49.040Z,70.94
2023-07-25T22:10:16.913Z,71.12
2023-07-25T22:12:47.759Z,71.57
2023-07-25T22:15:15.828Z,71.68
2023-07-25T22:17:43.912Z,71.94
2023-07-25T22:20:12.280Z,72.20
2023-07-25T22:22:41.046Z,72.47
2023-07-25T22:25:09.250Z,72.67
2023-07-25T22:27:37.106Z,72.89
2023-07-25T22:30:06.311Z,72.96
2023-07-25T22:32:34.482Z,73.30
2023-07-25T22:35:02.480Z,73.19
2023-07-25T22:37:30.904Z,73.30
2023-07-25T22:39:58.604Z,73.20
2023-07-25T22:42:26.568Z,73.28
2023-07-25T22:44:54.408Z,73.24
2023-07-25T22:47:22.265Z,72.97
2023-07-25T22:49:53.526Z,73.10
2023-07-25T22:52:23.305Z,72.80
2023-07-25T22:54:51.407Z,72.67
2023-07-25T22:57:19.213Z,72.64
2023-07-25T22:59:46.968Z,72.82
2023-07-25T23:02:14.770Z,72.86
2023-07-25T23:04:42.524Z,73.40
2023-07-25T23:07:10.244Z,73.90
2023-07-25T23:09:38.125Z,74.03
2023-07-25T23:12:06.449Z,74.18
2023-07-25T23:14:35.136Z,74.31
2023-07-25T23:17:03.042Z,74.06
2023-07-25T23:19:31.126Z,74.14
2023-07-25T23:21:58.913Z,74.35
2023-07-25T23:24:26.714Z,74.28
2023-07-25T23:26:54.451Z,74.54
2023-07-25T23:29:22.187Z,74.70
2023-07-25T23:31:50.296Z,74.78
2023-07-25T23:34:18.443Z,75.02
2023-07-25T23:36:46.200Z,75.35
2023-07-25T23:39:13.958Z,75.23
2023-07-25T23:41:41.741Z,75.45
2023-07-25T23:44:10.842Z,75.57
2023-07-25T23:46:38.738Z,75.50
2023-07-25T23:49:06.514Z,75.89
2023-07-25T23:51:34.230Z,76.06
2023-07-25T23:54:02.145Z,75.85
2023-07-25T23:56:29.975Z,75.94
2023-07-25T23:58:57.824Z,76.05
